createdAt,value
2022-10-18T00:01:14.599Z,71.00
2022-10-18T00:06:14.796Z,70.84
2022-10-18T00:08:41.456Z,71.28
2022-10-18T00:11:08.367Z,71.11
2022-10-18T00:13:35.753Z,70.22
2022-10-18T00:16:04.749Z,70.62
2022-10-18T00:18:36.193Z,69.92
2022-10-18T00:21:06.483Z,69.95
2022-10-18T00:23:36.086Z,70.17
2022-10-18T00:26:19.800Z,69.93
2022-10-18T00:28:49.980Z,70.57
2022-10-18T00:31:20.855Z,71.67
2022-10-18T00:33:50.913Z,72.56
2022-10-18T00:36:18.237Z,72.64
2022-10-18T00:38:48.303Z,71.75
2022-10-18T00:41:20.422Z,70.70
2022-10-18T00:44:02.349Z,71.98
2022-10-18T00:46:31.440Z,72.23
2022-10-18T00:49:01.794Z,71.65
2022-10-18T00:51:50.838Z,70.97
2022-10-18T00:54:19.356Z,72.07
2022-10-18T00:56:46.377Z,72.24
2022-10-18T00:59:18.089Z,72.15
2022-10-18T01:01:47.681Z,72.52
2022-10-18T01:04:21.811Z,71.98
2022-10-18T01:07:03.676Z,72.55
2022-10-18T01:09:42.300Z,73.68
2022-10-18T01:12:45.629Z,73.80
2022-10-18T01:15:27.544Z,74.14
2022-10-18T01:18:12.006Z,72.40
2022-10-18T01:21:10.815Z,72.42
2022-10-18T01:23:58.516Z,73.32
2022-10-18T01:26:40.252Z,73.59
2022-10-18T01:29:28.582Z,73.71
2022-10-18T01:32:02.529Z,73.44
2022-10-18T01:34:35.243Z,73.32
2022-10-18T01:37:09.371Z,72.56
2022-10-18T01:39:40.046Z,72.21
2022-10-18T01:42:11.547Z,72.75
2022-10-18T01:44:41.000Z,72.45
2022-10-18T01:47:13.084Z,72.33
2022-10-18T01:49:44.446Z,72.13
2022-10-18T01:52:15.641Z,73.05
2022-10-18T01:54:50.836Z,72.48
2022-10-18T01:57:32.459Z,72.59
2022-10-18T02:00:05.958Z,72.92
2022-10-18T02:02:35.220Z,72.04
2022-10-18T02:05:20.304Z,72.10
2022-10-18T02:07:55.437Z,72.26
2022-10-18T02:10:55.645Z,71.98
2022-10-18T02:13:29.743Z,71.72
2022-10-18T02:16:05.131Z,72.07
2022-10-18T02:18:40.271Z,71.68
2022-10-18T02:21:13.027Z,71.94
2022-10-18T02:23:42.783Z,72.02
2022-10-18T02:26:09.286Z,71.80
2022-10-18T02:28:38.524Z,71.83
2022-10-18T02:31:23.169Z,72.90
2022-10-18T02:33:55.928Z,73.68
2022-10-18T02:36:27.807Z,73.07
2022-10-18T02:39:04.691Z,72.81
2022-10-18T02:41:34.785Z,73.29
2022-10-18T02:44:03.640Z,73.68
2022-10-18T02:46:30.177Z,74.31
2022-10-18T02:48:56.682Z,74.72
2022-10-18T02:51:23.803Z,75.53
2022-10-18T02:53:52.895Z,75.11
2022-10-18T02:56:19.344Z,75.15
2022-10-18T02:58:47.987Z,74.47
2022-10-18T03:01:14.525Z,74.62
2022-10-18T03:03:41.134Z,74.97
2022-10-18T03:06:07.680Z,74.57
2022-10-18T03:08:36.865Z,74.93
2022-10-18T03:11:05.650Z,75.07
2022-10-18T03:13:34.704Z,75.21
2022-10-18T03:16:01.258Z,75.39
2022-10-18T03:18:30.414Z,75.43
2022-10-18T03:21:07.231Z,75.34
2022-10-18T03:23:35.121Z,75.34
2022-10-18T03:26:02.009Z,75.74
2022-10-18T03:28:31.553Z,75.34
2022-10-18T03:31:02.551Z,75.08
2022-10-18T03:33:32.591Z,74.97
2022-10-18T03:36:01.424Z,75.50
2022-10-18T03:38:27.998Z,74.32
2022-10-18T03:40:54.562Z,74.44
2022-10-18T03:43:21.296Z,73.94
2022-10-18T03:45:47.995Z,74.64
2022-10-18T03:48:14.622Z,75.31
2022-10-18T03:50:41.221Z,75.31
2022-10-18T03:53:10.020Z,74.84
2022-10-18T03:55:37.475Z,75.22
2022-10-18T03:58:04.556Z,75.36
2022-10-18T04:00:34.030Z,75.18
2022-10-18T04:03:00.659Z,75.98
2022-10-18T04:05:31.972Z,76.14
2022-10-18T04:08:00.807Z,76.05
2022-10-18T04:10:27.373Z,76.00
2022-10-18T04:12:54.318Z,76.42
2022-10-18T04:15:21.034Z,74.98
2022-10-18T04:17:47.617Z,76.05
2022-10-18T04:20:16.613Z,76.99
2022-10-18T04:22:43.155Z,77.93
2022-10-18T04:25:09.671Z,77.50
2022-10-18T04:27:37.402Z,76.30
2022-10-18T04:30:06.621Z,76.62
2022-10-18T04:32:35.558Z,75.45
2022-10-18T04:35:06.160Z,74.54
2022-10-18T04:37:33.685Z,74.44
2022-10-18T04:40:00.504Z,74.07
2022-10-18T04:42:27.062Z,73.56
2022-10-18T04:44:53.659Z,74.18
2022-10-18T04:47:20.399Z,74.62
2022-10-18T04:49:47.050Z,74.43
2022-10-18T04:52:13.627Z,74.03
2022-10-18T04:54:40.159Z,74.11
2022-10-18T04:57:06.689Z,73.63
2022-10-18T04:59:37.213Z,74.70
2022-10-18T05:02:06.926Z,76.21
2022-10-18T05:04:33.606Z,75.21
2022-10-18T05:07:00.152Z,78.90
2022-10-18T05:09:29.569Z,78.79
2022-10-18T05:11:56.084Z,74.83
2022-10-18T05:14:22.631Z,77.85
2022-10-18T05:16:51.862Z,82.78
2022-10-18T05:19:18.432Z,75.59
2022-10-18T05:21:44.979Z,76.21
2022-10-18T05:24:12.249Z,75.38
2022-10-18T05:26:41.171Z,75.34
2022-10-18T05:29:10.451Z,75.42
2022-10-18T05:31:39.722Z,76.64
2022-10-18T05:34:08.749Z,75.29
2022-10-18T05:36:37.491Z,74.77
2022-10-18T05:39:05.285Z,75.18
2022-10-18T05:41:34.675Z,75.11
2022-10-18T05:44:05.585Z,74.32
2022-10-18T05:46:34.797Z,75.20
2022-10-18T05:49:01.432Z,74.90
2022-10-18T05:51:30.175Z,75.20
2022-10-18T05:53:56.771Z,74.63
2022-10-18T05:56:23.266Z,74.55
2022-10-18T05:58:51.665Z,74.29
2022-10-18T06:01:21.686Z,74.14
2022-10-18T06:03:50.889Z,73.22
2022-10-18T06:06:20.484Z,74.05
2022-10-18T06:08:50.234Z,73.98
2022-10-18T06:11:21.482Z,73.52
2022-10-18T06:13:49.864Z,73.45
2022-10-18T06:16:18.595Z,73.99
2022-10-18T06:18:54.224Z,73.21
2022-10-18T06:21:21.783Z,73.79
2022-10-18T06:23:53.212Z,73.60
2022-10-18T06:26:20.421Z,72.67
2022-10-18T06:28:52.230Z,72.29
2022-10-18T06:31:22.511Z,83.88
2022-10-18T06:33:49.360Z,81.44
2022-10-18T06:36:24.446Z,69.68
2022-10-18T06:38:51.527Z,69.98
2022-10-18T06:41:19.224Z,68.63
2022-10-18T06:43:57.731Z,68.07
2022-10-18T06:46:29.017Z,69.49
2022-10-18T06:48:55.568Z,68.44
2022-10-18T06:51:22.041Z,68.86
2022-10-18T06:54:05.941Z,67.79
2022-10-18T06:56:38.359Z,68.35
2022-10-18T06:59:09.695Z,67.74
2022-10-18T07:01:36.498Z,68.00
2022-10-18T07:04:03.277Z,69.20
2022-10-18T07:06:29.815Z,69.10
2022-10-18T07:08:57.133Z,72.35
2022-10-18T07:11:26.471Z,70.54
2022-10-18T07:14:02.960Z,67.50
2022-10-18T07:16:30.107Z,68.09
2022-10-18T07:18:56.819Z,67.58
2022-10-18T07:21:27.581Z,67.87
2022-10-18T07:23:54.584Z,67.65
2022-10-18T07:26:24.580Z,66.75
2022-10-18T07:28:55.308Z,66.53
2022-10-18T07:31:25.036Z,66.53
2022-10-18T07:33:52.251Z,65.71
2022-10-18T07:36:19.225Z,65.01
2022-10-18T07:38:48.032Z,65.46
2022-10-18T07:41:17.452Z,64.75
2022-10-18T07:43:50.749Z,65.99
2022-10-18T07:46:20.504Z,65.61
2022-10-18T07:48:47.642Z,63.89
2022-10-18T07:51:20.444Z,65.04
2022-10-18T07:53:47.455Z,64.44
2022-10-18T07:56:16.590Z,62.67
2022-10-18T07:58:53.192Z,64.27
2022-10-18T08:01:21.450Z,63.22
2022-10-18T08:03:53.334Z,63.38
2022-10-18T08:06:21.173Z,61.13
2022-10-18T08:08:49.967Z,61.01
2022-10-18T08:11:25.255Z,60.53
2022-10-18T08:13:53.777Z,60.89
2022-10-18T08:16:23.181Z,58.84
2022-10-18T08:18:54.451Z,57.90
2022-10-18T08:21:23.590Z,58.38
2022-10-18T08:23:53.897Z,59.73
2022-10-18T08:26:21.857Z,58.71
2022-10-18T08:28:54.023Z,57.88
2022-10-18T08:31:25.581Z,58.85
2022-10-18T08:33:55.089Z,58.97
2022-10-18T08:36:21.617Z,58.13
2022-10-18T08:38:49.350Z,58.76
2022-10-18T08:41:33.859Z,58.17
2022-10-18T08:44:18.660Z,57.11
2022-10-18T08:46:49.907Z,57.34
2022-10-18T08:49:28.451Z,57.12
2022-10-18T08:51:56.901Z,56.52
2022-10-18T08:54:44.545Z,53.89
2022-10-18T08:57:18.096Z,55.96
2022-10-18T08:59:44.705Z,54.89
2022-10-18T09:02:26.316Z,53.25
2022-10-18T09:05:36.825Z,54.47
2022-10-18T09:08:41.287Z,59.46
2022-10-18T09:11:32.206Z,51.81
2022-10-18T09:14:14.923Z,53.76
2022-10-18T09:17:02.596Z,50.32
2022-10-18T09:19:57.827Z,49.13
2022-10-18T09:22:37.723Z,49.25
2022-10-18T09:25:17.246Z,49.03
2022-10-18T09:28:06.361Z,48.91
2022-10-18T09:30:53.034Z,48.06
2022-10-18T09:33:40.639Z,49.41
2022-10-18T09:36:14.933Z,48.20
2022-10-18T09:38:49.433Z,46.87
2022-10-18T09:41:25.114Z,48.95
2022-10-18T09:44:00.687Z,47.06
2022-10-18T09:46:36.295Z,48.23
2022-10-18T09:49:26.175Z,47.67
2022-10-18T09:51:54.285Z,46.64
2022-10-18T09:54:35.095Z,47.48
2022-10-18T09:57:20.955Z,46.85
2022-10-18T09:59:49.403Z,45.56
2022-10-18T10:02:18.812Z,42.90
2022-10-18T10:04:45.466Z,41.81
2022-10-18T10:07:19.217Z,42.98
2022-10-18T10:09:56.958Z,44.69
2022-10-18T10:12:40.290Z,43.00
2022-10-18T10:15:31.232Z,42.24
2022-10-18T10:18:23.013Z,44.02
2022-10-18T10:20:53.696Z,42.36
2022-10-18T10:23:30.853Z,41.99
2022-10-18T10:26:01.749Z,41.63
2022-10-18T10:28:46.351Z,41.68
2022-10-18T10:31:26.332Z,41.93
2022-10-18T10:34:00.920Z,40.50
2022-10-18T10:36:31.262Z,40.38
2022-10-18T10:39:24.221Z,41.48
2022-10-18T10:41:56.322Z,39.57
2022-10-18T10:44:26.146Z,39.67
2022-10-18T10:47:02.460Z,40.20
2022-10-18T10:49:40.374Z,39.98
2022-10-18T10:52:26.844Z,40.58
2022-10-18T10:55:16.997Z,41.28
2022-10-18T10:57:55.221Z,40.01
2022-10-18T11:03:33.364Z,39.75
2022-10-18T11:06:01.018Z,39.24
2022-10-18T11:08:33.195Z,39.67
2022-10-18T11:11:27.386Z,39.13
2022-10-18T11:14:13.559Z,38.97
2022-10-18T11:17:26.380Z,39.86
2022-10-18T11:20:18.887Z,40.19
2022-10-18T11:23:18.009Z,39.06
2022-10-18T11:26:03.076Z,38.28
2022-10-18T11:28:54.188Z,38.23
2022-10-18T11:31:33.020Z,38.53
2022-10-18T11:34:14.819Z,38.78
2022-10-18T11:37:39.532Z,39.57
2022-10-18T11:40:05.621Z,38.90
2022-10-18T11:42:59.136Z,38.26
2022-10-18T11:45:34.755Z,37.97
2022-10-18T11:48:36.466Z,38.12
2022-10-18T11:51:56.076Z,38.33
2022-10-18T11:54:50.314Z,37.12
2022-10-18T11:57:41.744Z,38.74
2022-10-18T12:00:19.767Z,38.57
2022-10-18T12:03:01.359Z,38.84
2022-10-18T12:05:29.671Z,37.15
2022-10-18T12:08:07.457Z,36.65
2022-10-18T12:10:52.849Z,37.65
2022-10-18T12:13:45.762Z,36.77
2022-10-18T12:16:15.136Z,36.86
2022-10-18T12:18:49.741Z,36.26
2022-10-18T12:21:24.562Z,36.35
2022-10-18T12:24:01.071Z,36.23
2022-10-18T12:26:34.346Z,35.13
2022-10-18T12:29:09.977Z,37.30
2022-10-18T12:31:53.633Z,36.35
2022-10-18T12:34:23.082Z,36.28
2022-10-18T12:37:16.502Z,36.38
2022-10-18T12:40:08.638Z,35.47
2022-10-18T12:42:42.863Z,36.73
2022-10-18T12:45:26.262Z,36.80
2022-10-18T12:47:53.589Z,38.29
2022-10-18T12:50:23.156Z,36.45
2022-10-18T12:53:02.167Z,37.90
2022-10-18T12:55:36.957Z,38.65
2022-10-18T12:58:07.824Z,39.68
2022-10-18T13:00:34.382Z,38.73
2022-10-18T13:03:12.623Z,38.68
2022-10-18T13:05:53.378Z,38.57
2022-10-18T13:08:33.951Z,37.09
2022-10-18T13:11:12.287Z,37.03
2022-10-18T13:14:09.343Z,37.23
2022-10-18T13:16:48.953Z,38.00
2022-10-18T13:19:58.049Z,38.86
2022-10-18T13:22:58.607Z,38.89
2022-10-18T13:25:46.077Z,41.02
2022-10-18T13:28:35.613Z,39.70
2022-10-18T13:31:14.107Z,36.74
2022-10-18T13:33:44.021Z,38.57
2022-10-18T13:36:31.182Z,37.01
2022-10-18T13:39:02.706Z,37.20
2022-10-18T13:41:34.545Z,37.91
2022-10-18T13:44:02.111Z,38.70
2022-10-18T13:46:34.589Z,39.11
2022-10-18T13:49:25.368Z,39.14
2022-10-18T13:52:25.998Z,40.85
2022-10-18T13:55:17.394Z,40.57
2022-10-18T13:57:43.878Z,39.50
2022-10-18T14:00:15.770Z,40.86
2022-10-18T14:03:56.179Z,41.40
2022-10-18T14:06:51.783Z,40.60
2022-10-18T14:09:55.671Z,39.74
2022-10-18T14:12:58.319Z,41.42
2022-10-18T14:15:33.838Z,41.59
2022-10-18T14:18:15.387Z,44.69
2022-10-18T14:21:12.734Z,45.27
2022-10-18T14:23:49.645Z,44.50
2022-10-18T14:26:22.878Z,41.72
2022-10-18T14:29:23.398Z,44.73
2022-10-18T14:31:54.458Z,45.66
2022-10-18T14:34:34.333Z,43.28
2022-10-18T14:37:31.382Z,44.84
2022-10-18T14:40:28.284Z,44.15
2022-10-18T14:42:54.776Z,43.98
2022-10-18T14:45:29.406Z,46.17
2022-10-18T14:48:21.602Z,44.67
2022-10-18T14:51:03.491Z,45.76
2022-10-18T14:53:37.416Z,45.70
2022-10-18T14:56:05.164Z,45.68
2022-10-18T14:58:37.996Z,45.62
2022-10-18T15:01:05.179Z,46.65
2022-10-18T15:03:35.983Z,46.45
2022-10-18T15:06:10.591Z,46.97
2022-10-18T15:08:41.661Z,46.76
2022-10-18T15:11:13.293Z,46.91
2022-10-18T15:14:24.146Z,46.48
2022-10-18T15:16:59.023Z,47.74
2022-10-18T15:19:44.128Z,47.32
2022-10-18T15:22:32.337Z,48.33
2022-10-18T15:25:15.314Z,48.59
2022-10-18T15:27:47.652Z,48.62
2022-10-18T15:30:22.306Z,51.31
2022-10-18T15:32:53.950Z,48.54
2022-10-18T15:35:29.094Z,48.97
2022-10-18T15:38:14.205Z,49.11
2022-10-18T15:40:43.824Z,49.57
2022-10-18T15:43:30.657Z,49.62
2022-10-18T15:46:06.403Z,50.29
2022-10-18T15:48:41.285Z,51.24
2022-10-18T15:51:20.280Z,51.22
2022-10-18T15:53:49.974Z,51.80
2022-10-18T15:56:30.580Z,52.44
2022-10-18T15:58:59.490Z,52.81
2022-10-18T16:01:32.519Z,52.62
2022-10-18T16:04:00.253Z,52.90
2022-10-18T16:06:26.784Z,53.09
2022-10-18T16:08:53.767Z,53.54
2022-10-18T16:11:25.414Z,53.09
2022-10-18T16:13:57.863Z,52.81
2022-10-18T16:16:29.041Z,52.76
2022-10-18T16:18:59.110Z,52.23
2022-10-18T16:21:27.505Z,53.17
2022-10-18T16:23:54.611Z,52.92
2022-10-18T16:26:24.650Z,53.89
2022-10-18T16:28:52.298Z,54.32
2022-10-18T16:31:22.167Z,52.16
2022-10-18T16:33:49.713Z,53.41
2022-10-18T16:36:22.408Z,53.07
2022-10-18T16:38:49.963Z,51.29
2022-10-18T16:41:16.836Z,50.21
2022-10-18T16:43:48.317Z,50.41
2022-10-18T16:46:37.378Z,51.02
2022-10-18T16:49:17.103Z,51.67
2022-10-18T16:51:46.196Z,50.02
2022-10-18T16:54:12.731Z,49.55
2022-10-18T16:56:41.695Z,48.32
2022-10-18T16:59:16.102Z,48.87
2022-10-18T17:01:45.411Z,49.67
2022-10-18T17:04:16.794Z,48.35
2022-10-18T17:06:43.555Z,48.07
2022-10-18T17:09:14.268Z,47.54
2022-10-18T17:11:43.229Z,49.37
2022-10-18T17:14:09.752Z,48.47
2022-10-18T17:16:39.092Z,47.42
2022-10-18T17:19:10.600Z,47.73
2022-10-18T17:21:37.650Z,49.83
2022-10-18T17:24:18.641Z,54.31
2022-10-18T17:26:47.628Z,48.92
2022-10-18T17:29:14.228Z,50.23
2022-10-18T17:31:40.941Z,49.96
2022-10-18T17:34:16.452Z,49.46
2022-10-18T17:39:32.994Z,50.88
2022-10-18T17:42:05.137Z,51.35
2022-10-18T17:44:31.700Z,52.34
2022-10-18T17:47:11.204Z,53.27
2022-10-18T17:49:52.506Z,53.48
2022-10-18T17:52:35.080Z,52.91
2022-10-18T17:55:30.118Z,52.51
2022-10-18T17:58:02.757Z,53.86
2022-10-18T18:00:48.812Z,51.79
2022-10-18T18:03:18.003Z,50.60
2022-10-18T18:05:47.509Z,49.84
2022-10-18T18:08:15.015Z,49.24
2022-10-18T18:10:42.030Z,49.83
2022-10-18T18:13:09.071Z,50.92
2022-10-18T18:19:05.068Z,48.90
2022-10-18T18:24:41.084Z,50.81
2022-10-18T18:27:31.661Z,53.73
2022-10-18T18:30:00.269Z,55.31
2022-10-18T18:32:29.284Z,54.31
2022-10-18T18:34:58.451Z,54.12
2022-10-18T18:37:27.571Z,54.20
2022-10-18T18:42:41.145Z,56.12
2022-10-18T18:45:10.674Z,56.10
2022-10-18T18:47:41.486Z,56.95
2022-10-18T18:50:11.048Z,58.05
2022-10-18T18:52:37.616Z,58.25
2022-10-18T18:55:07.301Z,57.90
2022-10-18T18:57:34.015Z,58.36
2022-10-18T19:00:04.578Z,59.76
2022-10-18T19:02:31.044Z,59.43
2022-10-18T19:05:00.045Z,60.31
2022-10-18T19:07:28.922Z,60.20
2022-10-18T19:09:55.416Z,59.40
2022-10-18T19:12:24.483Z,60.09
2022-10-18T19:14:51.030Z,61.71
2022-10-18T19:17:17.661Z,61.78
2022-10-18T19:19:44.244Z,62.06
2022-10-18T19:22:11.140Z,61.69
2022-10-18T19:24:37.708Z,61.80
2022-10-18T19:27:09.617Z,60.11
2022-10-18T19:29:46.062Z,60.04
2022-10-18T19:32:13.390Z,59.10
2022-10-18T19:34:40.462Z,59.68
2022-10-18T19:37:09.382Z,60.25
2022-10-18T19:39:51.337Z,60.87
2022-10-18T19:42:27.481Z,62.20
2022-10-18T19:45:08.764Z,62.52
2022-10-18T19:47:41.159Z,61.65
2022-10-18T19:50:12.567Z,61.52
2022-10-18T19:52:42.096Z,61.22
2022-10-18T19:58:00.547Z,60.24
2022-10-18T20:00:52.190Z,62.60
2022-10-18T20:03:24.578Z,63.57
2022-10-18T20:06:03.376Z,62.58
2022-10-18T20:09:05.301Z,62.36
2022-10-18T20:11:31.909Z,61.55
2022-10-18T20:13:59.680Z,63.62
2022-10-18T20:16:31.356Z,63.68
2022-10-18T20:19:05.089Z,63.16
2022-10-18T20:21:35.920Z,62.59
2022-10-18T20:24:09.757Z,63.01
2022-10-18T20:26:39.576Z,64.69
2022-10-18T20:29:08.798Z,63.54
2022-10-18T20:31:38.484Z,64.35
2022-10-18T20:34:11.645Z,63.43
2022-10-18T20:36:38.602Z,63.60
2022-10-18T20:39:06.777Z,65.60
2022-10-18T20:41:41.069Z,65.03
2022-10-18T20:44:12.107Z,64.39
2022-10-18T20:46:39.549Z,64.25
2022-10-18T20:49:11.599Z,64.70
2022-10-18T20:51:40.547Z,65.09
2022-10-18T20:54:07.887Z,65.54
2022-10-18T20:56:36.557Z,65.07
2022-10-18T20:59:10.586Z,65.81
2022-10-18T21:01:38.950Z,66.03
2022-10-18T21:04:08.215Z,65.42
2022-10-18T21:06:44.715Z,64.96
2022-10-18T21:09:18.819Z,64.94
2022-10-18T21:11:50.113Z,64.25
2022-10-18T21:14:19.017Z,63.39
2022-10-18T21:16:53.397Z,63.52
2022-10-18T21:19:24.237Z,64.50
2022-10-18T21:21:54.349Z,65.13
2022-10-18T21:24:24.879Z,65.33
2022-10-18T21:26:54.584Z,66.18
2022-10-18T21:29:24.613Z,66.08
2022-10-18T21:31:55.038Z,66.00
2022-10-18T21:34:26.059Z,65.93
2022-10-18T21:36:52.625Z,65.55
2022-10-18T21:41:51.691Z,66.19
2022-10-18T21:44:18.534Z,65.96
2022-10-18T21:46:46.657Z,66.43
2022-10-18T21:49:14.139Z,65.52
2022-10-18T21:51:41.127Z,66.31
2022-10-18T21:54:14.401Z,67.16
2022-10-18T21:56:41.214Z,66.27
2022-10-18T21:59:10.572Z,65.95
2022-10-18T22:01:38.799Z,66.21
2022-10-18T22:04:08.126Z,65.26
2022-10-18T22:06:38.474Z,65.21
2022-10-18T22:09:08.298Z,64.81
2022-10-18T22:11:39.012Z,65.59
2022-10-18T22:14:05.721Z,65.15
2022-10-18T22:16:32.514Z,64.26
2022-10-18T22:19:02.552Z,63.82
2022-10-18T22:21:32.037Z,64.45
2022-10-18T22:23:59.274Z,66.33
2022-10-18T22:26:34.164Z,66.49
2022-10-18T22:29:03.875Z,65.13
2022-10-18T22:31:35.850Z,65.39
2022-10-18T22:34:10.433Z,65.87
2022-10-18T22:36:37.163Z,65.55
2022-10-18T22:39:05.533Z,64.85
2022-10-18T22:41:33.488Z,64.99
2022-10-18T22:44:03.652Z,65.74
2022-10-18T22:46:34.263Z,65.74
2022-10-18T22:49:00.962Z,67.27
2022-10-18T22:51:27.515Z,66.20
2022-10-18T22:53:54.305Z,66.42
2022-10-18T22:56:23.839Z,66.69
2022-10-18T22:58:52.847Z,65.94
2022-10-18T23:01:20.823Z,66.42
2022-10-18T23:03:54.684Z,68.70
2022-10-18T23:06:35.221Z,68.99
2022-10-18T23:09:07.021Z,69.71
2022-10-18T23:11:36.359Z,68.67
2022-10-18T23:14:09.202Z,70.29
2022-10-18T23:16:35.966Z,69.67
2022-10-18T23:19:04.869Z,68.59
2022-10-18T23:21:33.624Z,68.65
2022-10-18T23:24:00.119Z,67.72
2022-10-18T23:26:27.855Z,69.40
2022-10-18T23:28:55.239Z,69.64
2022-10-18T23:31:27.147Z,69.58
2022-10-18T23:33:58.396Z,68.41
2022-10-18T23:36:28.769Z,68.18
2022-10-18T23:38:58.492Z,67.50
2022-10-18T23:41:27.470Z,69.08
2022-10-18T23:43:56.766Z,70.33
2022-10-18T23:46:25.525Z,70.48
2022-10-18T23:48:54.668Z,69.85
2022-10-18T23:51:23.352Z,70.09
2022-10-18T23:53:52.459Z,69.44
2022-10-18T23:56:23.955Z,69.07
2022-10-18T23:58:53.150Z,67.83
